createdAt,value
2023-10-06T00:02:29.944Z,92933.38
2023-10-06T00:04:57.974Z,92931.91
2023-10-06T00:07:25.726Z,92928.38
2023-10-06T00:09:55.189Z,92928.94
2023-10-06T00:12:21.887Z,92931.69
2023-10-06T00:14:51.548Z,92933.72
2023-10-06T00:17:18.967Z,92927.44
2023-10-06T00:19:46.800Z,92920.41
2023-10-06T00:22:16.240Z,92920.41
2023-10-06T00:24:43.279Z,92921.69
2023-10-06T00:27:14.113Z,92928.53
2023-10-06T00:29:45.319Z,92933.34
2023-10-06T00:32:24.309Z,92932.63
2023-10-06T00:34:53.869Z,92938.16
2023-10-06T00:37:24.529Z,92929.84
2023-10-06T00:39:55.857Z,92927.06
2023-10-06T00:42:22.723Z,92932.63
2023-10-06T00:44:49.642Z,92929.09
2023-10-06T00:47:17.005Z,92931.13
2023-10-06T00:49:44.712Z,92934.44
2023-10-06T00:52:13.302Z,92935.19
2023-10-06T00:54:44.213Z,92932.22
2023-10-06T00:57:13.819Z,92944.59
2023-10-06T00:59:42.582Z,92949.97
2023-10-06T01:02:12.601Z,92954.00
2023-10-06T01:04:47.087Z,92951.78
2023-10-06T01:07:14.955Z,92952.53
2023-10-06T01:09:57.927Z,92952.53
2023-10-06T01:12:32.431Z,92956.56
2023-10-06T01:15:16.856Z,92951.03
2023-10-06T01:17:44.586Z,92941.25
2023-10-06T01:20:12.441Z,92942.53
2023-10-06T01:22:45.678Z,92942.53
2023-10-06T01:25:23.440Z,92938.25
2023-10-06T01:27:51.606Z,92945.06
2023-10-06T01:30:19.542Z,92941.59
2023-10-06T01:32:50.259Z,92942.13
2023-10-06T01:35:16.997Z,92942.13
2023-10-06T01:37:44.771Z,92940.63
2023-10-06T01:40:38.244Z,92934.34
2023-10-06T01:43:11.294Z,92932.88
2023-10-06T01:45:45.038Z,92937.66
2023-10-06T01:48:15.076Z,92943.22
2023-10-06T01:50:42.406Z,92934.19
2023-10-06T01:53:11.852Z,92930.66
2023-10-06T01:55:39.734Z,92939.53
2023-10-06T01:58:08.753Z,92944.31
2023-10-06T02:00:37.185Z,92932.47
2023-10-06T02:03:13.630Z,92937.47
2023-10-06T02:05:40.265Z,92943.56
2023-10-06T02:08:22.425Z,92943.56
2023-10-06T02:10:49.392Z,92938.78
2023-10-06T02:13:22.736Z,92947.09
2023-10-06T02:16:00.292Z,92945.63
2023-10-06T02:18:45.854Z,92955.19
2023-10-06T02:21:32.657Z,92952.44
2023-10-06T02:24:05.186Z,92952.44
2023-10-06T02:26:38.657Z,92952.03
2023-10-06T02:29:12.609Z,92954.81
2023-10-06T02:31:42.546Z,92957.56
2023-10-06T02:34:15.833Z,92952.03
2023-10-06T02:36:43.072Z,92950.56
2023-10-06T02:39:09.971Z,92960.19
2023-10-06T02:41:38.098Z,92957.94
2023-10-06T02:44:20.379Z,92957.22
2023-10-06T02:46:47.033Z,92956.47
2023-10-06T02:49:13.770Z,92950.16
2023-10-06T02:51:48.711Z,92945.94
2023-10-06T02:54:15.520Z,92944.44
2023-10-06T02:56:43.497Z,92941.66
2023-10-06T02:59:22.844Z,92944.22
2023-10-06T03:01:55.438Z,92942.75
2023-10-06T03:04:24.054Z,92947.56
2023-10-06T03:06:54.738Z,92946.84
2023-10-06T03:09:44.494Z,92940.53
2023-10-06T03:12:27.608Z,92940.53
2023-10-06T03:14:55.359Z,92960.47
2023-10-06T03:17:22.351Z,92953.44
2023-10-06T03:20:18.288Z,92953.44
2023-10-06T03:22:46.469Z,92954.94
2023-10-06T03:25:17.665Z,92954.75
2023-10-06T03:27:50.861Z,92957.50
2023-10-06T03:30:27.925Z,92960.09
2023-10-06T03:32:55.081Z,92973.94
2023-10-06T03:35:46.618Z,92971.16
2023-10-06T03:38:19.465Z,92972.47
2023-10-06T03:40:49.353Z,92970.97
2023-10-06T03:43:16.009Z,92979.28
2023-10-06T03:45:45.041Z,92985.56
2023-10-06T03:48:13.302Z,92980.03
2023-10-06T03:50:44.164Z,92977.81
2023-10-06T03:53:13.381Z,92989.59
2023-10-06T03:55:41.225Z,92988.88
2023-10-06T03:58:12.161Z,92984.59
2023-10-06T04:00:41.266Z,92984.41
2023-10-06T04:03:14.838Z,92984.41
2023-10-06T04:05:52.398Z,92982.94
2023-10-06T04:08:22.538Z,92985.50
2023-10-06T04:10:52.884Z,92990.28
2023-10-06T04:13:20.180Z,92989.56
2023-10-06T04:15:50.602Z,92983.28
2023-10-06T04:18:26.203Z,92982.53
2023-10-06T04:20:54.932Z,92988.06
2023-10-06T04:23:25.243Z,92993.41
2023-10-06T04:25:56.755Z,92990.66
2023-10-06T04:28:26.607Z,92989.16
2023-10-06T04:30:54.684Z,92987.69
2023-10-06T04:33:21.345Z,92987.69
2023-10-06T04:36:08.749Z,92992.50
2023-10-06T04:38:39.144Z,93002.81
2023-10-06T04:41:10.475Z,92995.25
2023-10-06T04:43:38.866Z,92994.50
2023-10-06T04:46:06.651Z,92997.28
2023-10-06T04:48:34.058Z,92997.06
2023-10-06T04:51:04.134Z,93001.34
2023-10-06T04:53:36.130Z,92994.31
2023-10-06T04:56:12.455Z,92995.06
2023-10-06T04:58:43.346Z,92993.56
2023-10-06T05:01:12.155Z,92991.53
2023-10-06T05:03:44.987Z,92983.03
2023-10-06T05:06:18.037Z,92992.84
2023-10-06T05:08:48.602Z,92994.84
2023-10-06T05:11:20.686Z,92996.88
2023-10-06T05:13:50.834Z,92992.84
2023-10-06T05:16:20.131Z,92992.84
2023-10-06T05:18:46.992Z,92992.84
2023-10-06T05:21:13.574Z,92998.38
2023-10-06T05:23:40.120Z,92995.59
2023-10-06T05:26:11.802Z,92996.88
2023-10-06T05:28:38.677Z,92998.38
2023-10-06T05:31:08.624Z,93002.41
2023-10-06T05:33:35.651Z,92992.09
2023-10-06T05:36:13.128Z,92999.63
2023-10-06T05:38:40.140Z,93002.22
2023-10-06T05:41:12.470Z,93006.28
2023-10-06T05:43:40.367Z,93009.03
2023-10-06T05:46:07.260Z,93017.34
2023-10-06T05:48:35.375Z,93016.41
2023-10-06T05:51:11.073Z,93016.41
2023-10-06T05:53:42.700Z,93021.22
2023-10-06T05:56:09.964Z,93020.47
2023-10-06T05:58:38.681Z,93024.69
2023-10-06T06:01:12.302Z,93026.75
2023-10-06T06:03:47.299Z,93032.28
2023-10-06T06:06:23.821Z,93037.06
2023-10-06T06:08:54.102Z,93039.09
2023-10-06T06:11:21.377Z,93037.63
2023-10-06T06:13:58.888Z,93043.16
2023-10-06T06:16:33.768Z,93038.88
2023-10-06T06:19:00.382Z,93045.16
2023-10-06T06:21:27.458Z,93032.63
2023-10-06T06:23:57.003Z,93035.91
2023-10-06T06:26:24.270Z,93038.88
2023-10-06T06:28:50.875Z,93044.41
2023-10-06T06:31:19.591Z,93036.66
2023-10-06T06:33:50.420Z,93044.22
2023-10-06T06:36:17.267Z,93046.97
2023-10-06T06:38:43.797Z,93046.97
2023-10-06T06:41:10.402Z,93051.03
2023-10-06T06:43:37.046Z,93045.50
2023-10-06T06:46:03.668Z,93051.03
2023-10-06T06:48:30.321Z,93046.97
2023-10-06T06:50:56.902Z,93051.78
2023-10-06T06:53:23.460Z,93055.28
2023-10-06T06:55:50.186Z,93059.56
2023-10-06T06:58:17.925Z,93063.06
2023-10-06T07:00:47.555Z,93070.63
2023-10-06T07:03:16.020Z,93069.88
2023-10-06T07:05:44.240Z,93069.13
2023-10-06T07:08:12.777Z,93067.66
2023-10-06T07:10:44.724Z,93068.94
2023-10-06T07:13:11.985Z,93068.00
2023-10-06T07:15:38.547Z,93068.34
2023-10-06T07:18:06.234Z,93070.34
2023-10-06T07:20:33.981Z,93066.88
2023-10-06T07:23:01.869Z,93070.91
2023-10-06T07:25:30.027Z,93070.91
2023-10-06T07:27:59.128Z,93069.44
2023-10-06T07:30:28.522Z,93063.13
2023-10-06T07:32:56.211Z,93064.09
2023-10-06T07:35:43.612Z,93067.59
2023-10-06T07:38:15.429Z,93069.63
2023-10-06T07:40:43.685Z,93069.09
2023-10-06T07:43:11.409Z,93068.34
2023-10-06T07:45:38.037Z,93062.06
2023-10-06T07:48:08.089Z,93059.81
2023-10-06T07:50:35.976Z,93048.75
2023-10-06T07:53:03.023Z,93045.44
2023-10-06T07:55:29.783Z,93049.16
2023-10-06T07:57:56.489Z,93050.09
2023-10-06T08:00:30.049Z,93042.00
2023-10-06T08:03:01.037Z,93037.41
2023-10-06T08:05:31.168Z,93041.84
2023-10-06T08:08:01.347Z,93035.91
2023-10-06T08:10:31.793Z,93036.47
2023-10-06T08:13:02.166Z,93031.88
2023-10-06T08:15:29.369Z,93022.69
2023-10-06T08:17:57.475Z,93030.09
2023-10-06T08:20:28.676Z,93027.53
2023-10-06T08:22:55.834Z,93029.41
2023-10-06T08:25:25.130Z,93027.59
2023-10-06T08:27:52.597Z,93026.75
2023-10-06T08:30:20.993Z,93020.19
2023-10-06T08:32:58.627Z,93023.38
2023-10-06T08:35:25.318Z,93016.13
2023-10-06T08:37:58.011Z,93017.03
2023-10-06T08:40:24.985Z,93018.47
2023-10-06T08:42:53.264Z,93001.63
2023-10-06T08:45:30.445Z,92998.53
2023-10-06T08:48:04.670Z,92993.81
2023-10-06T08:50:34.757Z,92994.09
2023-10-06T08:53:03.161Z,92995.97
2023-10-06T08:55:30.389Z,92990.09
2023-10-06T08:58:02.781Z,92988.69
2023-10-06T09:00:32.478Z,92985.03
2023-10-06T09:03:08.550Z,92977.66
2023-10-06T09:05:38.815Z,92968.81
2023-10-06T09:08:08.677Z,92966.44
2023-10-06T09:10:41.912Z,92961.63
2023-10-06T09:13:18.346Z,92954.81
2023-10-06T09:15:56.699Z,92945.97
2023-10-06T09:18:28.416Z,92931.38
2023-10-06T09:20:57.330Z,92934.91
2023-10-06T09:23:32.149Z,92925.31
2023-10-06T09:26:03.287Z,92928.47
2023-10-06T09:28:30.251Z,92927.16
2023-10-06T09:31:02.796Z,92927.16
2023-10-06T09:33:39.414Z,92921.81
2023-10-06T09:36:32.105Z,92917.78
2023-10-06T09:39:02.428Z,92912.41
2023-10-06T09:41:30.449Z,92912.63
2023-10-06T09:44:11.053Z,92908.56
2023-10-06T09:46:42.712Z,92904.50
2023-10-06T09:49:17.290Z,92903.25
2023-10-06T09:51:45.123Z,92894.72
2023-10-06T09:54:12.600Z,92896.19
2023-10-06T09:56:42.730Z,92885.13
2023-10-06T09:59:14.817Z,92885.13
2023-10-06T10:01:46.995Z,92876.81
2023-10-06T10:04:15.220Z,92879.59
2023-10-06T10:06:45.806Z,92882.56
2023-10-06T10:09:19.149Z,92870.91
2023-10-06T10:11:58.318Z,92871.13
2023-10-06T10:15:03.949Z,92867.06
2023-10-06T10:17:49.278Z,92855.63
2023-10-06T10:20:17.390Z,92848.81
2023-10-06T10:22:44.425Z,92856.00
2023-10-06T10:27:45.005Z,92843.09
2023-10-06T10:30:14.077Z,92838.31
2023-10-06T10:32:53.289Z,92839.78
2023-10-06T10:35:20.259Z,92828.50
2023-10-06T10:38:05.854Z,92825.94
2023-10-06T10:40:47.917Z,92827.22
2023-10-06T10:43:15.704Z,92801.00
2023-10-06T10:45:46.120Z,92808.00
2023-10-06T10:48:15.445Z,92801.75
2023-10-06T10:50:54.359Z,92798.41
2023-10-06T10:53:24.330Z,92794.16
2023-10-06T10:55:51.842Z,92788.09
2023-10-06T10:58:43.495Z,92777.16
2023-10-06T11:01:28.602Z,92768.16
2023-10-06T11:04:20.011Z,92764.81
2023-10-06T11:06:50.629Z,92761.50
2023-10-06T11:09:31.772Z,92750.41
2023-10-06T11:12:20.164Z,92751.88
2023-10-06T11:14:47.667Z,92749.28
2023-10-06T11:17:14.443Z,92739.72
2023-10-06T11:19:41.613Z,92737.13
2023-10-06T11:22:23.706Z,92731.59
2023-10-06T11:24:51.949Z,92722.72
2023-10-06T11:27:23.643Z,92712.34
2023-10-06T11:29:54.265Z,92713.84
2023-10-06T11:32:23.012Z,92709.06
2023-10-06T11:34:51.954Z,92697.44
2023-10-06T11:37:21.892Z,92696.13
2023-10-06T11:39:50.328Z,92690.03
2023-10-06T11:42:31.125Z,92689.50
2023-10-06T11:44:59.320Z,92679.34
2023-10-06T11:47:29.083Z,92679.72
2023-10-06T11:49:56.072Z,92671.03
2023-10-06T11:52:22.957Z,92672.09
2023-10-06T11:54:49.744Z,92675.81
2023-10-06T11:57:16.867Z,92670.47
2023-10-06T11:59:50.827Z,92663.78
2023-10-06T12:02:18.117Z,92663.03
2023-10-06T12:04:45.515Z,92662.50
2023-10-06T12:07:25.153Z,92657.69
2023-10-06T12:09:53.253Z,92651.44
2023-10-06T12:12:19.889Z,92655.66
2023-10-06T12:14:46.691Z,92648.81
2023-10-06T12:17:16.080Z,92646.03
2023-10-06T12:19:45.698Z,92644.75
2023-10-06T12:22:14.766Z,92639.22
2023-10-06T12:24:43.691Z,92639.22
2023-10-06T12:27:10.833Z,92636.63
2023-10-06T12:29:37.418Z,92635.13
2023-10-06T12:32:05.528Z,92627.00
2023-10-06T12:34:32.993Z,92632.53
2023-10-06T12:37:03.392Z,92631.25
2023-10-06T12:39:35.823Z,92627.94
2023-10-06T12:42:05.160Z,92615.53
2023-10-06T12:44:32.237Z,92616.28
2023-10-06T12:47:04.606Z,92621.25
2023-10-06T12:49:34.269Z,92617.75
2023-10-06T12:52:00.948Z,92609.59
2023-10-06T12:54:27.463Z,92611.09
2023-10-06T12:56:54.052Z,92611.09
2023-10-06T12:59:20.654Z,92605.75
2023-10-06T13:01:50.203Z,92605.16
2023-10-06T13:04:16.950Z,92600.34
2023-10-06T13:06:43.818Z,92601.84
2023-10-06T13:09:18.334Z,92600.53
2023-10-06T13:11:44.998Z,92602.00
2023-10-06T13:14:11.801Z,92588.34
2023-10-06T13:16:38.534Z,92583.50
2023-10-06T13:19:05.585Z,92589.97
2023-10-06T13:21:32.174Z,92585.91
2023-10-06T13:24:02.319Z,92588.84
2023-10-06T13:26:42.657Z,92582.16
2023-10-06T13:29:10.664Z,92568.50
2023-10-06T13:31:38.434Z,92569.97
2023-10-06T13:34:05.472Z,92572.94
2023-10-06T13:36:32.297Z,92572.94
2023-10-06T13:38:58.903Z,92572.94
2023-10-06T13:41:25.603Z,92573.66
2023-10-06T13:43:52.268Z,92568.84
2023-10-06T13:46:19.290Z,92564.78
2023-10-06T13:48:46.013Z,92564.03
2023-10-06T13:51:13.140Z,92559.25
2023-10-06T13:53:42.288Z,92559.25
2023-10-06T13:56:09.501Z,92559.25
2023-10-06T13:58:36.358Z,92563.28
2023-10-06T14:01:02.993Z,92564.03
2023-10-06T14:03:30.140Z,92564.03
2023-10-06T14:06:00.321Z,92564.78
2023-10-06T14:08:29.423Z,92564.78
2023-10-06T14:10:57.764Z,92555.53
2023-10-06T14:13:26.250Z,92557.75
2023-10-06T14:15:56.702Z,92560.53
2023-10-06T14:18:32.127Z,92561.84
2023-10-06T14:20:59.418Z,92559.78
2023-10-06T14:23:31.393Z,92555.53
2023-10-06T14:26:01.707Z,92562.56
2023-10-06T14:28:29.692Z,92555.50
2023-10-06T14:31:15.574Z,92562.50
2023-10-06T14:33:45.897Z,92560.97
2023-10-06T14:36:15.557Z,92567.22
2023-10-06T14:38:45.092Z,92564.06
2023-10-06T14:41:16.586Z,92562.38
2023-10-06T14:44:22.223Z,92558.63
2023-10-06T14:46:51.772Z,92564.53
2023-10-06T14:49:28.798Z,92567.50
2023-10-06T14:52:02.193Z,92557.53
2023-10-06T14:54:34.077Z,92560.31
2023-10-06T14:57:02.400Z,92559.94
2023-10-06T14:59:32.670Z,92566.06
2023-10-06T15:02:07.547Z,92560.91
2023-10-06T15:04:35.696Z,92563.50
2023-10-06T15:07:03.036Z,92559.78
2023-10-06T15:09:31.853Z,92563.13
2023-10-06T15:11:58.462Z,92558.72
2023-10-06T15:14:26.451Z,92569.63
2023-10-06T15:16:54.410Z,92569.47
2023-10-06T15:19:26.101Z,92569.84
2023-10-06T15:21:56.043Z,92577.44
2023-10-06T15:24:23.029Z,92578.75
2023-10-06T15:26:51.538Z,92582.81
2023-10-06T15:29:22.446Z,92581.34
2023-10-06T15:31:50.319Z,92583.94
2023-10-06T15:34:19.847Z,92580.97
2023-10-06T15:36:46.660Z,92590.63
2023-10-06T15:39:20.102Z,92586.34
2023-10-06T15:41:47.864Z,92589.13
2023-10-06T15:44:14.880Z,92600.22
2023-10-06T15:46:42.196Z,92595.97
2023-10-06T15:49:14.867Z,92608.94
2023-10-06T15:51:44.012Z,92603.38
2023-10-06T15:54:10.820Z,92605.44
2023-10-06T15:56:39.912Z,92614.31
2023-10-06T15:59:15.174Z,92613.56
2023-10-06T16:01:44.346Z,92621.72
2023-10-06T16:04:13.570Z,92624.50
2023-10-06T16:06:42.982Z,92626.53
2023-10-06T16:09:10.805Z,92631.16
2023-10-06T16:11:40.832Z,92631.16
2023-10-06T16:14:07.562Z,92632.44
2023-10-06T16:16:35.993Z,92639.88
2023-10-06T16:19:07.030Z,92641.16
2023-10-06T16:21:34.456Z,92638.19
2023-10-06T16:24:01.636Z,92643.03
2023-10-06T16:26:31.299Z,92645.78
2023-10-06T16:28:59.658Z,92655.41
2023-10-06T16:31:27.317Z,92651.34
2023-10-06T16:33:55.290Z,92663.91
2023-10-06T16:36:23.749Z,92659.81
2023-10-06T16:38:54.224Z,92670.19
2023-10-06T16:41:24.239Z,92662.44
2023-10-06T16:43:57.423Z,92672.03
2023-10-06T16:46:24.752Z,92671.28
2023-10-06T16:48:51.551Z,92678.31
2023-10-06T16:51:21.586Z,92680.16
2023-10-06T16:53:49.973Z,92684.25
2023-10-06T16:56:19.594Z,92690.34
2023-10-06T16:58:47.161Z,92699.25
2023-10-06T17:01:13.849Z,92700.53
2023-10-06T17:03:41.072Z,92705.31
2023-10-06T17:06:12.417Z,92708.84
2023-10-06T17:08:39.809Z,92712.75
2023-10-06T17:11:25.194Z,92716.78
2023-10-06T17:13:54.169Z,92721.63
2023-10-06T17:16:21.208Z,92719.41
2023-10-06T17:18:48.340Z,92730.50
2023-10-06T17:21:15.825Z,92737.88
2023-10-06T17:23:46.081Z,92743.41
2023-10-06T17:26:16.043Z,92742.66
2023-10-06T17:28:42.885Z,92752.28
2023-10-06T17:31:16.049Z,92763.38
2023-10-06T17:33:43.749Z,92765.97
2023-10-06T17:36:10.462Z,92765.97
2023-10-06T17:38:37.175Z,92764.47
2023-10-06T17:41:04.845Z,92772.78
2023-10-06T17:43:31.388Z,92768.56
2023-10-06T17:45:58.983Z,92771.31
2023-10-06T17:48:26.723Z,92776.88
2023-10-06T17:50:53.678Z,92785.19
2023-10-06T17:53:20.310Z,92784.44
2023-10-06T17:55:57.529Z,92786.50
2023-10-06T17:58:24.572Z,92786.50
2023-10-06T18:00:51.361Z,92789.28
2023-10-06T18:03:20.647Z,92794.81
2023-10-06T18:05:49.593Z,92800.34
2023-10-06T18:08:17.881Z,92793.31
2023-10-06T18:10:46.179Z,92801.63
2023-10-06T18:13:13.018Z,92800.88
2023-10-06T18:15:39.631Z,92802.94
2023-10-06T18:18:06.527Z,92807.72
2023-10-06T18:20:38.950Z,92816.59
2023-10-06T18:23:08.892Z,92818.06
2023-10-06T18:25:37.596Z,92816.59
2023-10-06T18:28:05.440Z,92818.06
2023-10-06T18:30:32.614Z,92816.59
2023-10-06T18:32:59.515Z,92820.66
2023-10-06T18:35:26.148Z,92826.19
2023-10-06T18:37:54.407Z,92831.59
2023-10-06T18:40:21.212Z,92834.34
2023-10-06T18:42:48.558Z,92834.34
2023-10-06T18:45:15.260Z,92837.66
2023-10-06T18:47:42.083Z,92836.94
2023-10-06T18:50:18.949Z,92843.75
2023-10-06T18:52:52.882Z,92845.81
2023-10-06T18:55:23.653Z,92845.06
2023-10-06T18:57:51.904Z,92851.34
2023-10-06T19:00:18.704Z,92849.09
2023-10-06T19:02:48.342Z,92849.84
2023-10-06T19:05:15.903Z,92853.19
2023-10-06T19:07:43.487Z,92857.97
2023-10-06T19:10:10.845Z,92856.50
2023-10-06T19:12:37.983Z,92855.75
2023-10-06T19:15:09.301Z,92865.38
2023-10-06T19:17:38.130Z,92855.75
2023-10-06T19:20:08.504Z,92861.31
2023-10-06T19:22:35.890Z,92868.88
2023-10-06T19:25:03.019Z,92862.81
2023-10-06T19:27:30.073Z,92861.31
2023-10-06T19:29:56.644Z,92866.84
2023-10-06T19:32:24.906Z,92869.44
2023-10-06T19:34:52.685Z,92872.38
2023-10-06T19:37:20.840Z,92872.38
2023-10-06T19:39:47.715Z,92872.38
2023-10-06T19:42:14.476Z,92872.94
2023-10-06T19:44:44.500Z,92880.50
2023-10-06T19:47:13.099Z,92880.50
2023-10-06T19:49:40.238Z,92881.81
2023-10-06T19:52:09.206Z,92879.03
2023-10-06T19:54:36.851Z,92883.84
2023-10-06T19:57:03.918Z,92883.09
2023-10-06T19:59:33.625Z,92888.63
2023-10-06T20:02:01.991Z,92887.16
2023-10-06T20:04:28.695Z,92888.63
2023-10-06T20:06:55.576Z,92881.63
2023-10-06T20:09:25.170Z,92883.44
2023-10-06T20:11:52.133Z,92886.78
2023-10-06T20:14:18.953Z,92888.28
2023-10-06T20:16:45.624Z,92883.25
2023-10-06T20:19:12.678Z,92887.53
2023-10-06T20:21:40.614Z,92890.84
2023-10-06T20:24:09.839Z,92886.78
2023-10-06T20:26:36.753Z,92890.84
2023-10-06T20:29:10.478Z,92893.63
2023-10-06T20:31:41.184Z,92892.13
2023-10-06T20:34:08.532Z,92892.13
2023-10-06T20:36:35.648Z,92894.19
2023-10-06T20:39:09.623Z,92889.34
2023-10-06T20:41:40.286Z,92890.66
2023-10-06T20:44:13.727Z,92896.19
2023-10-06T20:46:41.154Z,92898.97
2023-10-06T20:49:11.715Z,92897.47
2023-10-06T20:51:38.360Z,92902.31
2023-10-06T20:54:05.204Z,92897.31
2023-10-06T20:56:31.905Z,92900.81
2023-10-06T20:58:58.985Z,92907.84
2023-10-06T21:01:26.045Z,92901.56
2023-10-06T21:03:53.108Z,92912.63
2023-10-06T21:06:19.835Z,92912.63
2023-10-06T21:08:47.818Z,92902.84
2023-10-06T21:11:14.422Z,92920.94
2023-10-06T21:13:41.036Z,92924.47
2023-10-06T21:16:07.769Z,92922.97
2023-10-06T21:18:34.391Z,92920.75
2023-10-06T21:21:00.993Z,92928.31
2023-10-06T21:23:28.690Z,92922.06
2023-10-06T21:25:55.322Z,92923.31
2023-10-06T21:28:23.905Z,92923.31
2023-10-06T21:30:50.670Z,92921.84
2023-10-06T21:33:17.297Z,92920.38
2023-10-06T21:35:43.834Z,92918.88
2023-10-06T21:38:10.396Z,92922.91
2023-10-06T21:40:39.091Z,92918.47
2023-10-06T21:43:05.921Z,92924.97
2023-10-06T21:45:32.481Z,92927.19
2023-10-06T21:47:59.091Z,92928.44
2023-10-06T21:50:25.791Z,92926.97
2023-10-06T21:52:53.130Z,92931.06
2023-10-06T21:55:19.730Z,92929.56
2023-10-06T21:57:46.345Z,92929.56
2023-10-06T22:00:26.389Z,92939.16
2023-10-06T22:02:54.894Z,92933.63
2023-10-06T22:05:21.959Z,92929.34
2023-10-06T22:07:52.434Z,92932.13
2023-10-06T22:10:19.326Z,92937.66
2023-10-06T22:12:48.672Z,92931.94
2023-10-06T22:15:15.724Z,92934.69
2023-10-06T22:17:42.457Z,92933.22
2023-10-06T22:20:09.935Z,92931.00
2023-10-06T22:22:37.875Z,92931.75
2023-10-06T22:25:06.075Z,92924.72
2023-10-06T22:27:34.002Z,92925.47
2023-10-06T22:30:00.924Z,92913.66
2023-10-06T22:32:27.671Z,92921.41
2023-10-06T22:34:54.847Z,92923.63
2023-10-06T22:37:26.264Z,92920.69
2023-10-06T22:39:52.949Z,92916.63
2023-10-06T22:42:19.539Z,92918.09
2023-10-06T22:44:46.406Z,92916.63
2023-10-06T22:47:13.061Z,92916.63
2023-10-06T22:49:40.983Z,92912.38
2023-10-06T22:52:07.540Z,92923.47
2023-10-06T22:54:34.181Z,92916.41
2023-10-06T22:57:00.911Z,92923.25
2023-10-06T22:59:27.444Z,92917.72
2023-10-06T23:01:55.028Z,92915.50
2023-10-06T23:04:22.274Z,92919.53
2023-10-06T23:06:49.239Z,92921.56
2023-10-06T23:09:18.416Z,92922.88
2023-10-06T23:11:45.655Z,92921.41
2023-10-06T23:14:12.444Z,92920.09
2023-10-06T23:16:40.774Z,92921.41
2023-10-06T23:19:13.796Z,92922.66
2023-10-06T23:21:44.103Z,92929.50
2023-10-06T23:24:16.218Z,92923.22
2023-10-06T23:26:46.062Z,92923.97
2023-10-06T23:29:13.709Z,92923.22
2023-10-06T23:31:41.394Z,92923.22
2023-10-06T23:34:08.359Z,92923.22
2023-10-06T23:36:35.317Z,92926.53
2023-10-06T23:39:02.172Z,92936.13
2023-10-06T23:41:30.646Z,92929.13
2023-10-06T23:43:57.506Z,92927.63
2023-10-06T23:46:26.477Z,92931.69
2023-10-06T23:48:54.299Z,92943.50
2023-10-06T23:51:22.146Z,92944.22
2023-10-06T23:53:52.773Z,92942.75
2023-10-06T23:56:26.339Z,92940.00
2023-10-06T23:58:56.661Z,92935.00
